sensor_id;sensor_type;location;lat;lon;timestamp;P1;durP1;ratioP1;P2;durP2;ratioP2
31974;SDS011;18500;43.618;1.474;2022-11-02T07:15:17;578.42;;;540.80;;
31974;SDS011;18500;43.618;1.474;2022-11-02T07:17:43;576.50;;;539.20;;
31974;SDS011;18500;43.618;1.474;2022-11-02T07:20:09;636.33;;;593.20;;
31974;SDS011;18500;43.618;1.474;2022-11-02T07:22:35;800.60;;;742.92;;
31974;SDS011;18500;43.618;1.474;2022-11-02T07:25:01;769.72;;;714.45;;
31974;SDS011;18500;43.618;1.474;2022-11-02T07:27:27;684.15;;;636.45;;
31974;SDS011;18500;43.618;1.474;2022-11-02T07:29:53;693.03;;;644.45;;
31974;SDS011;18500;43.618;1.474;2022-11-02T07:32:18;698.58;;;650.20;;
31974;SDS011;18500;43.618;1.474;2022-11-02T07:34:44;705.28;;;656.47;;
31974;SDS011;18500;43.618;1.474;2022-11-02T07:37:09;692.80;;;644.83;;
31974;SDS011;18500;43.618;1.474;2022-11-02T07:39:35;717.17;;;666.83;;
31974;SDS011;18500;43.618;1.474;2022-11-02T07:42:01;708.03;;;658.20;;
31974;SDS011;18500;43.618;1.474;2022-11-02T07:44:26;712.25;;;662.53;;
31974;SDS011;18500;43.618;1.474;2022-11-02T07:46:53;728.17;;;677.10;;
31974;SDS011;18500;43.618;1.474;2022-11-02T07:49:19;734.85;;;682.10;;
31974;SDS011;18500;43.618;1.474;2022-11-02T07:51:44;770.42;;;714.60;;
31974;SDS011;18500;43.618;1.474;2022-11-02T07:54:10;728.28;;;676.63;;
31974;SDS011;18500;43.618;1.474;2022-11-02T07:56:36;817.03;;;756.13;;
31974;SDS011;18500;43.618;1.474;2022-11-02T07:59:01;837.30;;;774.38;;
31974;SDS011;18500;43.618;1.474;2022-11-02T08:01:27;825.08;;;763.45;;
31974;SDS011;18500;43.618;1.474;2022-11-02T08:03:53;814.10;;;753.13;;
31974;SDS011;18500;43.618;1.474;2022-11-02T08:06:18;864.25;;;798.75;;
31974;SDS011;18500;43.618;1.474;2022-11-02T08:08:44;838.17;;;774.72;;
31974;SDS011;18500;43.618;1.474;2022-11-02T08:11:10;801.13;;;742.13;;
31974;SDS011;18500;43.618;1.474;2022-11-02T08:13:36;839.60;;;776.30;;
31974;SDS011;18500;43.618;1.474;2022-11-02T08:16:02;819.15;;;757.75;;
31974;SDS011;18500;43.618;1.474;2022-11-02T08:18:28;802.92;;;743.67;;
31974;SDS011;18500;43.618;1.474;2022-11-02T08:20:55;805.47;;;745.50;;
31974;SDS011;18500;43.618;1.474;2022-11-02T08:23:21;826.10;;;765.08;;
31974;SDS011;18500;43.618;1.474;2022-11-02T08:25:48;818.72;;;757.53;;
31974;SDS011;18500;43.618;1.474;2022-11-02T08:28:16;834.75;;;770.90;;
31974;SDS011;18500;43.618;1.474;2022-11-02T08:30:44;824.65;;;763.17;;
31974;SDS011;18500;43.618;1.474;2022-11-02T08:33:10;839.47;;;775.85;;
31974;SDS011;18500;43.618;1.474;2022-11-02T08:35:39;870.50;;;805.35;;
31974;SDS011;18500;43.618;1.474;2022-11-02T08:38:06;813.15;;;752.60;;
31974;SDS011;18500;43.618;1.474;2022-11-02T08:40:32;860.63;;;795.53;;
31974;SDS011;18500;43.618;1.474;2022-11-02T08:42:58;906.40;;;837.95;;
31974;SDS011;18500;43.618;1.474;2022-11-02T08:45:25;876.42;;;811.33;;
31974;SDS011;18500;43.618;1.474;2022-11-02T08:47:52;875.35;;;809.58;;
31974;SDS011;18500;43.618;1.474;2022-11-02T08:50:18;893.03;;;824.53;;
31974;SDS011;18500;43.618;1.474;2022-11-02T08:52:43;857.15;;;792.20;;
31974;SDS011;18500;43.618;1.474;2022-11-02T08:55:09;884.85;;;817.67;;
31974;SDS011;18500;43.618;1.474;2022-11-02T08:57:45;885.03;;;819.17;;
31974;SDS011;18500;43.618;1.474;2022-11-02T09:00:12;902.60;;;834.20;;
31974;SDS011;18500;43.618;1.474;2022-11-02T09:02:38;887.78;;;820.55;;
31974;SDS011;18500;43.618;1.474;2022-11-02T09:05:04;863.40;;;798.22;;
31974;SDS011;18500;43.618;1.474;2022-11-02T09:07:30;889.47;;;822.85;;
31974;SDS011;18500;43.618;1.474;2022-11-02T09:09:56;891.70;;;824.83;;
31974;SDS011;18500;43.618;1.474;2022-11-02T09:12:21;901.75;;;832.88;;
31974;SDS011;18500;43.618;1.474;2022-11-02T09:14:47;904.50;;;836.40;;
31974;SDS011;18500;43.618;1.474;2022-11-02T09:17:13;897.03;;;830.83;;
31974;SDS011;18500;43.618;1.474;2022-11-02T09:19:38;878.38;;;811.47;;
31974;SDS011;18500;43.618;1.474;2022-11-02T09:22:04;958.35;;;880.80;;
31974;SDS011;18500;43.618;1.474;2022-11-02T09:24:29;886.38;;;819.38;;
31974;SDS011;18500;43.618;1.474;2022-11-02T09:26:55;887.20;;;820.00;;
31974;SDS011;18500;43.618;1.474;2022-11-02T09:29:21;896.90;;;828.65;;
31974;SDS011;18500;43.618;1.474;2022-11-02T09:31:46;891.90;;;824.05;;
31974;SDS011;18500;43.618;1.474;2022-11-02T09:34:13;895.83;;;827.08;;
31974;SDS011;18500;43.618;1.474;2022-11-02T09:36:39;908.45;;;837.92;;
31974;SDS011;18500;43.618;1.474;2022-11-02T09:39:05;834.15;;;771.83;;
31974;SDS011;18500;43.618;1.474;2022-11-02T09:41:32;865.40;;;799.78;;
31974;SDS011;18500;43.618;1.474;2022-11-02T09:44:06;790.13;;;734.40;;
31974;SDS011;18500;43.618;1.474;2022-11-02T09:46:38;772.10;;;717.08;;
31974;SDS011;18500;43.618;1.474;2022-11-02T09:49:17;846.67;;;784.63;;
31974;SDS011;18500;43.618;1.474;2022-11-02T09:51:45;743.75;;;691.03;;
31974;SDS011;18500;43.618;1.474;2022-11-02T09:54:17;823.05;;;762.95;;
31974;SDS011;18500;43.618;1.474;2022-11-02T09:56:54;751.25;;;696.83;;
31974;SDS011;18500;43.618;1.474;2022-11-02T09:59:23;902.22;;;830.28;;
31974;SDS011;18500;43.618;1.474;2022-11-02T10:04:41;886.88;;;817.35;;
31974;SDS011;18500;43.618;1.474;2022-11-02T10:10:11;1011.63;;;920.90;;
31974;SDS011;18500;43.618;1.474;2022-11-02T10:15:21;1017.75;;;928.90;;
31974;SDS011;18500;43.618;1.474;2022-11-02T10:17:55;987.25;;;900.65;;
31974;SDS011;18500;43.618;1.474;2022-11-02T10:20:27;938.17;;;861.22;;
31974;SDS011;18500;43.618;1.474;2022-11-02T10:23:06;1040.47;;;949.25;;
31974;SDS011;18500;43.618;1.474;2022-11-02T10:25:33;906.33;;;834.65;;
31974;SDS011;18500;43.618;1.474;2022-11-02T10:28:08;1136.72;;;999.90;;
31974;SDS011;18500;43.618;1.474;2022-11-02T10:30:37;1078.90;;;975.47;;
31974;SDS011;18500;43.618;1.474;2022-11-02T10:33:09;1039.63;;;946.55;;
31974;SDS011;18500;43.618;1.474;2022-11-02T10:36:02;1019.42;;;926.35;;
31974;SDS011;18500;43.618;1.474;2022-11-02T10:46:48;1026.03;;;936.58;;
31974;SDS011;18500;43.618;1.474;2022-11-02T10:52:09;987.70;;;904.83;;
31974;SDS011;18500;43.618;1.474;2022-11-02T10:54:38;1008.83;;;921.97;;
31974;SDS011;18500;43.618;1.474;2022-11-02T10:57:08;1188.32;;;999.90;;
31974;SDS011;18500;43.618;1.474;2022-11-02T10:59:42;1061.18;;;962.97;;
31974;SDS011;18500;43.618;1.474;2022-11-02T11:04:38;1175.28;;;999.90;;
31974;SDS011;18500;43.618;1.474;2022-11-02T11:07:15;1412.60;;;999.90;;
31974;SDS011;18500;43.618;1.474;2022-11-02T11:15:22;1110.50;;;999.00;;
31974;SDS011;18500;43.618;1.474;2022-11-02T11:17:52;1115.22;;;998.53;;
31974;SDS011;18500;43.618;1.474;2022-11-02T11:20:52;1099.63;;;992.67;;
31974;SDS011;18500;43.618;1.474;2022-11-02T11:25:54;1070.45;;;965.70;;
31974;SDS011;18500;43.618;1.474;2022-11-02T11:33:43;1122.45;;;998.72;;
31974;SDS011;18500;43.618;1.474;2022-11-02T11:36:21;1134.93;;;999.90;;
31974;SDS011;18500;43.618;1.474;2022-11-02T11:38:50;1168.72;;;999.90;;
31974;SDS011;18500;43.618;1.474;2022-11-02T11:41:18;1156.57;;;999.90;;
31974;SDS011;18500;43.618;1.474;2022-11-02T11:43:45;1171.57;;;999.90;;
31974;SDS011;18500;43.618;1.474;2022-11-02T11:46:12;1284.78;;;999.90;;
31974;SDS011;18500;43.618;1.474;2022-11-02T11:51:21;1268.32;;;999.90;;
31974;SDS011;18500;43.618;1.474;2022-11-02T11:54:04;1217.60;;;999.90;;
31974;SDS011;18500;43.618;1.474;2022-11-02T11:56:39;1144.95;;;999.90;;
31974;SDS011;18500;43.618;1.474;2022-11-02T11:59:16;1137.18;;;999.90;;
31974;SDS011;18500;43.618;1.474;2022-11-02T12:01:46;1095.18;;;989.83;;
31974;SDS011;18500;43.618;1.474;2022-11-02T12:04:12;1085.22;;;982.33;;
31974;SDS011;18500;43.618;1.474;2022-11-02T12:06:56;1096.30;;;991.95;;
31974;SDS011;18500;43.618;1.474;2022-11-02T12:09:51;1090.57;;;987.85;;
31974;SDS011;18500;43.618;1.474;2022-11-02T12:28:49;1018.00;;;917.17;;
31974;SDS011;18500;43.618;1.474;2022-11-02T12:31:34;768.20;;;706.28;;
31974;SDS011;18500;43.618;1.474;2022-11-02T12:47:37;1024.53;;;931.15;;
31974;SDS011;18500;43.618;1.474;2022-11-02T12:50:07;763.33;;;702.35;;
31974;SDS011;18500;43.618;1.474;2022-11-02T12:55:18;829.75;;;759.80;;
31974;SDS011;18500;43.618;1.474;2022-11-02T12:57:47;1055.32;;;946.88;;
31974;SDS011;18500;43.618;1.474;2022-11-02T13:00:15;1264.32;;;999.90;;
31974;SDS011;18500;43.618;1.474;2022-11-02T13:02:54;1421.13;;;999.90;;
31974;SDS011;18500;43.618;1.474;2022-11-02T13:05:27;1383.18;;;999.90;;
31974;SDS011;18500;43.618;1.474;2022-11-02T13:10:35;1216.15;;;997.13;;
31974;SDS011;18500;43.618;1.474;2022-11-02T13:13:07;1486.90;;;999.90;;
31974;SDS011;18500;43.618;1.474;2022-11-02T13:15:40;1094.88;;;966.20;;
31974;SDS011;18500;43.618;1.474;2022-11-02T13:18:14;934.05;;;849.60;;
31974;SDS011;18500;43.618;1.474;2022-11-02T13:20:51;974.53;;;886.60;;
31974;SDS011;18500;43.618;1.474;2022-11-02T13:25:49;1421.63;;;999.90;;
31974;SDS011;18500;43.618;1.474;2022-11-02T13:33:57;1125.40;;;992.63;;
31974;SDS011;18500;43.618;1.474;2022-11-02T13:36:26;1109.72;;;988.42;;
31974;SDS011;18500;43.618;1.474;2022-11-02T13:38:54;1320.80;;;999.90;;
31974;SDS011;18500;43.618;1.474;2022-11-02T13:49:53;962.42;;;876.17;;
31974;SDS011;18500;43.618;1.474;2022-11-02T13:55:36;880.55;;;796.63;;
31974;SDS011;18500;43.618;1.474;2022-11-02T13:58:12;945.90;;;855.08;;
31974;SDS011;18500;43.618;1.474;2022-11-02T14:00:47;1014.13;;;915.83;;
31974;SDS011;18500;43.618;1.474;2022-11-02T14:06:08;957.47;;;870.65;;
31974;SDS011;18500;43.618;1.474;2022-11-02T14:08:38;863.45;;;791.10;;
31974;SDS011;18500;43.618;1.474;2022-11-02T14:26:58;992.42;;;893.60;;
31974;SDS011;18500;43.618;1.474;2022-11-02T14:29:35;1061.22;;;945.42;;
31974;SDS011;18500;43.618;1.474;2022-11-02T14:48:46;1331.88;;;999.90;;
31974;SDS011;18500;43.618;1.474;2022-11-02T14:51:21;1132.93;;;968.45;;
31974;SDS011;18500;43.618;1.474;2022-11-02T14:53:56;1542.75;;;999.90;;
31974;SDS011;18500;43.618;1.474;2022-11-02T14:59:47;1533.35;;;999.90;;
31974;SDS011;18500;43.618;1.474;2022-11-02T15:05:02;1540.30;;;999.90;;
31974;SDS011;18500;43.618;1.474;2022-11-02T15:07:31;1452.88;;;999.90;;
31974;SDS011;18500;43.618;1.474;2022-11-02T15:10:06;1436.28;;;999.90;;
31974;SDS011;18500;43.618;1.474;2022-11-02T15:12:42;1478.32;;;999.90;;
31974;SDS011;18500;43.618;1.474;2022-11-02T15:26:15;1220.80;;;999.90;;
31974;SDS011;18500;43.618;1.474;2022-11-02T15:28:48;1206.20;;;999.90;;
31974;SDS011;18500;43.618;1.474;2022-11-02T15:31:16;1229.35;;;999.90;;
31974;SDS011;18500;43.618;1.474;2022-11-02T15:33:45;1139.13;;;999.90;;
31974;SDS011;18500;43.618;1.474;2022-11-02T15:36:14;1149.85;;;999.90;;
31974;SDS011;18500;43.618;1.474;2022-11-02T15:38:51;1083.85;;;976.15;;
31974;SDS011;18500;43.618;1.474;2022-11-02T15:41:24;1041.47;;;945.35;;
31974;SDS011;18500;43.618;1.474;2022-11-02T15:49:27;1020.25;;;927.30;;
31974;SDS011;18500;43.618;1.474;2022-11-02T15:55:19;991.35;;;902.88;;
31974;SDS011;18500;43.618;1.474;2022-11-02T15:58:00;1075.68;;;971.50;;
31974;SDS011;18500;43.618;1.474;2022-11-02T16:00:31;1086.95;;;982.47;;
31974;SDS011;18500;43.618;1.474;2022-11-02T16:03:06;1141.80;;;999.90;;
31974;SDS011;18500;43.618;1.474;2022-11-02T16:08:02;1285.10;;;999.90;;
31974;SDS011;18500;43.618;1.474;2022-11-02T16:12:56;1248.32;;;999.90;;
31974;SDS011;18500;43.618;1.474;2022-11-02T16:15:22;1201.72;;;999.90;;
31974;SDS011;18500;43.618;1.474;2022-11-02T16:17:48;1162.30;;;999.90;;
31974;SDS011;18500;43.618;1.474;2022-11-02T16:20:18;1067.32;;;966.45;;
31974;SDS011;18500;43.618;1.474;2022-11-02T16:22:50;996.50;;;908.53;;
31974;SDS011;18500;43.618;1.474;2022-11-02T16:25:36;948.25;;;869.35;;
31974;SDS011;18500;43.618;1.474;2022-11-02T16:28:25;969.78;;;889.58;;
31974;SDS011;18500;43.618;1.474;2022-11-02T16:33:49;886.72;;;816.28;;
31974;SDS011;18500;43.618;1.474;2022-11-02T16:36:17;895.90;;;824.70;;
31974;SDS011;18500;43.618;1.474;2022-11-02T16:38:56;958.78;;;879.65;;
31974;SDS011;18500;43.618;1.474;2022-11-02T16:41:27;898.50;;;826.10;;
31974;SDS011;18500;43.618;1.474;2022-11-02T16:43:55;1022.92;;;932.00;;
31974;SDS011;18500;43.618;1.474;2022-11-02T16:46:29;982.88;;;900.50;;
31974;SDS011;18500;43.618;1.474;2022-11-02T16:51:35;890.83;;;814.67;;
31974;SDS011;18500;43.618;1.474;2022-11-02T16:54:25;945.63;;;866.40;;
31974;SDS011;18500;43.618;1.474;2022-11-02T16:56:51;895.70;;;817.35;;
31974;SDS011;18500;43.618;1.474;2022-11-02T16:59:18;945.22;;;858.92;;
31974;SDS011;18500;43.618;1.474;2022-11-02T17:01:45;1021.58;;;935.22;;
31974;SDS011;18500;43.618;1.474;2022-11-02T17:04:15;922.67;;;842.08;;
31974;SDS011;18500;43.618;1.474;2022-11-02T17:06:41;951.45;;;870.40;;
31974;SDS011;18500;43.618;1.474;2022-11-02T17:09:41;881.63;;;811.15;;
31974;SDS011;18500;43.618;1.474;2022-11-02T17:12:03;1046.07;;;944.95;;
31974;SDS011;18500;43.618;1.474;2022-11-02T17:14:39;1010.22;;;920.80;;
31974;SDS011;18500;43.618;1.474;2022-11-02T17:17:31;932.33;;;853.30;;
31974;SDS011;18500;43.618;1.474;2022-11-02T17:23:01;1073.05;;;969.05;;
31974;SDS011;18500;43.618;1.474;2022-11-02T17:25:32;919.65;;;843.05;;
31974;SDS011;18500;43.618;1.474;2022-11-02T17:27:59;1105.68;;;992.40;;
31974;SDS011;18500;43.618;1.474;2022-11-02T17:32:59;980.10;;;894.22;;
31974;SDS011;18500;43.618;1.474;2022-11-02T17:35:32;983.47;;;899.97;;
31974;SDS011;18500;43.618;1.474;2022-11-02T17:37:58;850.63;;;783.25;;
31974;SDS011;18500;43.618;1.474;2022-11-02T17:40:24;821.45;;;757.20;;
31974;SDS011;18500;43.618;1.474;2022-11-02T17:42:50;951.92;;;871.30;;
31974;SDS011;18500;43.618;1.474;2022-11-02T17:47:54;861.67;;;792.25;;
31974;SDS011;18500;43.618;1.474;2022-11-02T17:50:21;915.42;;;837.17;;
31974;SDS011;18500;43.618;1.474;2022-11-02T17:52:48;938.03;;;856.90;;
31974;SDS011;18500;43.618;1.474;2022-11-02T17:55:19;884.53;;;812.13;;
31974;SDS011;18500;43.618;1.474;2022-11-02T17:57:46;952.97;;;869.55;;
31974;SDS011;18500;43.618;1.474;2022-11-02T18:00:12;875.85;;;802.00;;
31974;SDS011;18500;43.618;1.474;2022-11-02T18:02:38;964.67;;;880.50;;
31974;SDS011;18500;43.618;1.474;2022-11-02T18:05:09;944.55;;;864.83;;
31974;SDS011;18500;43.618;1.474;2022-11-02T18:07:43;910.13;;;833.22;;
31974;SDS011;18500;43.618;1.474;2022-11-02T18:10:08;963.03;;;880.42;;
31974;SDS011;18500;43.618;1.474;2022-11-02T18:12:34;988.95;;;903.75;;
31974;SDS011;18500;43.618;1.474;2022-11-02T18:15:00;947.22;;;867.70;;
31974;SDS011;18500;43.618;1.474;2022-11-02T18:17:25;995.65;;;907.38;;
31974;SDS011;18500;43.618;1.474;2022-11-02T18:19:51;983.70;;;897.08;;
31974;SDS011;18500;43.618;1.474;2022-11-02T18:22:16;991.67;;;903.10;;
31974;SDS011;18500;43.618;1.474;2022-11-02T18:24:42;993.75;;;906.58;;
31974;SDS011;18500;43.618;1.474;2022-11-02T18:27:08;976.00;;;891.22;;
31974;SDS011;18500;43.618;1.474;2022-11-02T18:29:33;983.60;;;898.83;;
31974;SDS011;18500;43.618;1.474;2022-11-02T18:31:59;977.78;;;893.53;;
31974;SDS011;18500;43.618;1.474;2022-11-02T18:34:25;936.72;;;856.60;;
31974;SDS011;18500;43.618;1.474;2022-11-02T18:36:50;948.97;;;867.60;;
31974;SDS011;18500;43.618;1.474;2022-11-02T18:39:16;956.13;;;872.92;;
31974;SDS011;18500;43.618;1.474;2022-11-02T18:41:42;915.13;;;838.75;;
31974;SDS011;18500;43.618;1.474;2022-11-02T18:44:07;932.65;;;852.70;;
31974;SDS011;18500;43.618;1.474;2022-11-02T18:46:33;929.63;;;850.13;;
31974;SDS011;18500;43.618;1.474;2022-11-02T18:48:59;907.60;;;831.10;;
31974;SDS011;18500;43.618;1.474;2022-11-02T18:51:25;919.38;;;841.33;;
31974;SDS011;18500;43.618;1.474;2022-11-02T18:54:01;868.33;;;796.88;;
31974;SDS011;18500;43.618;1.474;2022-11-02T18:56:28;852.28;;;784.20;;
31974;SDS011;18500;43.618;1.474;2022-11-02T18:58:54;821.75;;;758.47;;
31974;SDS011;18500;43.618;1.474;2022-11-02T19:01:21;801.22;;;740.38;;
31974;SDS011;18500;43.618;1.474;2022-11-02T19:03:51;787.35;;;727.67;;
31974;SDS011;18500;43.618;1.474;2022-11-02T19:06:19;780.30;;;722.00;;
31974;SDS011;18500;43.618;1.474;2022-11-02T19:09:04;763.22;;;705.33;;
31974;SDS011;18500;43.618;1.474;2022-11-02T19:11:43;773.10;;;714.28;;
31974;SDS011;18500;43.618;1.474;2022-11-02T19:14:25;754.97;;;699.47;;
31974;SDS011;18500;43.618;1.474;2022-11-02T19:16:53;763.08;;;706.03;;
31974;SDS011;18500;43.618;1.474;2022-11-02T19:19:18;859.53;;;792.00;;
31974;SDS011;18500;43.618;1.474;2022-11-02T19:21:44;873.70;;;803.50;;
31974;SDS011;18500;43.618;1.474;2022-11-02T19:24:10;839.30;;;773.25;;
31974;SDS011;18500;43.618;1.474;2022-11-02T19:26:36;835.75;;;774.13;;
31974;SDS011;18500;43.618;1.474;2022-11-02T19:29:02;873.72;;;805.42;;
31974;SDS011;18500;43.618;1.474;2022-11-02T19:31:28;886.33;;;816.33;;
31974;SDS011;18500;43.618;1.474;2022-11-02T19:33:54;857.90;;;791.85;;
31974;SDS011;18500;43.618;1.474;2022-11-02T19:36:20;838.70;;;775.83;;
31974;SDS011;18500;43.618;1.474;2022-11-02T19:38:46;858.78;;;793.28;;
31974;SDS011;18500;43.618;1.474;2022-11-02T19:41:12;825.00;;;765.47;;
31974;SDS011;18500;43.618;1.474;2022-11-02T19:43:40;851.08;;;788.53;;
31974;SDS011;18500;43.618;1.474;2022-11-02T19:46:08;830.83;;;769.42;;
31974;SDS011;18500;43.618;1.474;2022-11-02T19:48:37;841.47;;;777.67;;
31974;SDS011;18500;43.618;1.474;2022-11-02T19:51:13;856.15;;;790.80;;
31974;SDS011;18500;43.618;1.474;2022-11-02T19:53:41;844.50;;;780.67;;
31974;SDS011;18500;43.618;1.474;2022-11-02T19:56:09;848.67;;;783.00;;
31974;SDS011;18500;43.618;1.474;2022-11-02T19:58:37;860.63;;;794.88;;
31974;SDS011;18500;43.618;1.474;2022-11-02T20:01:04;833.17;;;770.53;;
31974;SDS011;18500;43.618;1.474;2022-11-02T20:03:37;816.28;;;757.72;;
31974;SDS011;18500;43.618;1.474;2022-11-02T20:06:05;797.47;;;740.45;;
31974;SDS011;18500;43.618;1.474;2022-11-02T20:08:32;806.30;;;746.88;;
31974;SDS011;18500;43.618;1.474;2022-11-02T20:13:27;822.72;;;762.47;;
31974;SDS011;18500;43.618;1.474;2022-11-02T20:15:55;832.78;;;771.40;;
31974;SDS011;18500;43.618;1.474;2022-11-02T20:18:22;853.15;;;789.28;;
31974;SDS011;18500;43.618;1.474;2022-11-02T20:20:48;836.03;;;773.40;;
31974;SDS011;18500;43.618;1.474;2022-11-02T20:23:16;843.67;;;780.00;;
31974;SDS011;18500;43.618;1.474;2022-11-02T20:25:45;855.45;;;790.35;;
31974;SDS011;18500;43.618;1.474;2022-11-02T20:28:11;831.75;;;769.13;;
31974;SDS011;18500;43.618;1.474;2022-11-02T20:30:40;855.80;;;789.45;;
31974;SDS011;18500;43.618;1.474;2022-11-02T20:33:06;840.05;;;777.28;;
31974;SDS011;18500;43.618;1.474;2022-11-02T20:35:32;831.97;;;769.45;;
31974;SDS011;18500;43.618;1.474;2022-11-02T20:37:58;838.15;;;774.90;;
31974;SDS011;18500;43.618;1.474;2022-11-02T20:40:24;846.95;;;782.25;;
31974;SDS011;18500;43.618;1.474;2022-11-02T20:42:52;846.00;;;781.55;;
31974;SDS011;18500;43.618;1.474;2022-11-02T20:45:38;843.80;;;780.03;;
31974;SDS011;18500;43.618;1.474;2022-11-02T20:48:03;854.58;;;789.30;;
31974;SDS011;18500;43.618;1.474;2022-11-02T20:50:29;861.33;;;795.10;;
31974;SDS011;18500;43.618;1.474;2022-11-02T20:52:55;844.92;;;781.50;;
31974;SDS011;18500;43.618;1.474;2022-11-02T20:55:22;822.03;;;762.38;;
31974;SDS011;18500;43.618;1.474;2022-11-02T20:57:48;857.03;;;791.80;;
31974;SDS011;18500;43.618;1.474;2022-11-02T21:00:15;878.47;;;811.67;;
31974;SDS011;18500;43.618;1.474;2022-11-02T21:02:42;775.78;;;719.95;;
31974;SDS011;18500;43.618;1.474;2022-11-02T21:05:12;848.08;;;784.08;;
31974;SDS011;18500;43.618;1.474;2022-11-02T21:07:38;859.40;;;795.03;;
31974;SDS011;18500;43.618;1.474;2022-11-02T21:10:04;881.47;;;813.22;;
31974;SDS011;18500;43.618;1.474;2022-11-02T21:12:31;857.30;;;792.05;;
31974;SDS011;18500;43.618;1.474;2022-11-02T21:15:15;859.45;;;795.75;;
31974;SDS011;18500;43.618;1.474;2022-11-02T21:17:41;872.35;;;805.92;;
31974;SDS011;18500;43.618;1.474;2022-11-02T21:20:07;892.28;;;823.28;;
31974;SDS011;18500;43.618;1.474;2022-11-02T21:22:33;888.90;;;820.85;;
31974;SDS011;18500;43.618;1.474;2022-11-02T21:24:59;853.38;;;788.92;;
31974;SDS011;18500;43.618;1.474;2022-11-02T21:27:26;838.05;;;775.67;;
31974;SDS011;18500;43.618;1.474;2022-11-02T21:29:51;887.00;;;819.00;;
31974;SDS011;18500;43.618;1.474;2022-11-02T21:32:17;892.00;;;822.75;;
31974;SDS011;18500;43.618;1.474;2022-11-02T21:34:43;883.15;;;815.50;;
31974;SDS011;18500;43.618;1.474;2022-11-02T21:37:08;865.75;;;799.85;;
31974;SDS011;18500;43.618;1.474;2022-11-02T21:39:34;883.08;;;814.65;;
31974;SDS011;18500;43.618;1.474;2022-11-02T21:42:01;863.05;;;797.05;;
31974;SDS011;18500;43.618;1.474;2022-11-02T21:44:27;808.88;;;749.60;;
